Burjassot, Spain
Current Conditions -  °F | °C
As of 5:30 PM on Tuesday 27 Jan 2015 (Local Time) from LEVC Reporting Station
Few Clouds Few Clouds  
Wind Chill: 64°   Ceiling: Unl
Heat Index: 64°   Visibility: 6mi
Dew Point: 32°   Wind: 15mph
Humidity: 30%   Direction: 320°NW
Pressure: 30.12"   Gusts: NA
Location:  39.52°N, 0.42°W
Report Text: LEVC 271630Z 32013KT 280V350 9999 FEW030 18/M00 Q1020 NOSIG
Loading
Personal Weather Stations






























Interactive Weather Map New forecast layout! Learn more

10-Day Weather Forecast

Advertisements
Track Severe Weather on mobile